createdAt,value
2023-05-16T00:00:54.273Z,99.90
2023-05-16T00:03:21.410Z,99.90
2023-05-16T00:05:48.661Z,99.90
2023-05-16T00:08:15.601Z,99.90
2023-05-16T00:10:42.445Z,99.90
2023-05-16T00:13:09.860Z,99.90
2023-05-16T00:15:38.656Z,99.90
2023-05-16T00:18:06.023Z,99.90
2023-05-16T00:20:33.055Z,99.90
2023-05-16T00:23:01.260Z,99.90
2023-05-16T00:25:28.838Z,99.90
2023-05-16T00:27:55.817Z,99.90
2023-05-16T00:30:22.826Z,99.90
2023-05-16T00:32:51.948Z,99.90
2023-05-16T00:35:18.805Z,99.90
2023-05-16T00:37:46.948Z,99.90
2023-05-16T00:40:14.797Z,99.90
2023-05-16T00:42:42.845Z,99.90
2023-05-16T00:45:12.073Z,99.90
2023-05-16T00:47:39.059Z,99.90
2023-05-16T00:50:07.180Z,99.90
2023-05-16T00:52:34.723Z,99.90
2023-05-16T00:55:04.266Z,99.90
2023-05-16T00:57:31.470Z,99.90
2023-05-16T00:59:58.446Z,99.90
2023-05-16T01:02:28.438Z,99.90
2023-05-16T01:04:56.586Z,99.90
2023-05-16T01:07:24.023Z,99.90
2023-05-16T01:09:51.243Z,99.90
2023-05-16T01:12:44.701Z,99.90
2023-05-16T01:15:37.092Z,99.90
2023-05-16T01:18:15.089Z,99.90
2023-05-16T01:20:55.612Z,99.90
2023-05-16T01:23:34.582Z,99.90
2023-05-16T01:26:14.474Z,99.90
2023-05-16T01:28:41.932Z,99.90
2023-05-16T01:31:08.800Z,99.90
2023-05-16T01:33:35.660Z,99.90
2023-05-16T01:36:15.540Z,99.90
2023-05-16T01:38:51.121Z,99.90
2023-05-16T01:41:42.162Z,99.90
2023-05-16T01:44:21.211Z,99.90
2023-05-16T01:46:56.614Z,99.90
2023-05-16T01:50:03.301Z,99.90
2023-05-16T01:52:56.308Z,99.90
2023-05-16T01:55:36.830Z,99.90
2023-05-16T01:58:05.871Z,99.90
2023-05-16T02:00:32.803Z,99.90
2023-05-16T02:03:00.235Z,99.90
2023-05-16T02:05:27.833Z,99.90
2023-05-16T02:07:55.430Z,99.90
2023-05-16T02:10:22.422Z,99.90
2023-05-16T02:12:50.467Z,99.90
2023-05-16T02:15:17.478Z,99.90
2023-05-16T02:17:44.533Z,99.90
2023-05-16T02:20:12.005Z,99.90
2023-05-16T02:22:39.283Z,99.90
2023-05-16T02:25:07.337Z,99.90
2023-05-16T02:27:34.984Z,99.90
2023-05-16T02:30:02.534Z,99.90
2023-05-16T02:32:29.434Z,99.90
2023-05-16T02:34:56.407Z,99.90
2023-05-16T02:37:24.766Z,99.90
2023-05-16T02:39:51.601Z,99.90
2023-05-16T02:42:18.391Z,99.90
2023-05-16T02:44:45.239Z,99.90
2023-05-16T02:47:12.095Z,99.90
2023-05-16T02:49:38.902Z,99.90
2023-05-16T02:52:07.723Z,99.90
2023-05-16T02:54:35.731Z,99.90
2023-05-16T02:57:02.760Z,99.90
2023-05-16T02:59:29.577Z,99.90
2023-05-16T03:01:56.484Z,99.90
2023-05-16T03:04:23.660Z,99.90
2023-05-16T03:06:51.181Z,99.90
2023-05-16T03:09:18.573Z,99.90
2023-05-16T03:11:46.159Z,99.90
2023-05-16T03:14:13.410Z,99.90
2023-05-16T03:16:43.243Z,99.90
2023-05-16T03:19:11.112Z,99.90
2023-05-16T03:21:38.208Z,99.90
2023-05-16T03:24:06.586Z,99.90
2023-05-16T03:26:33.587Z,99.90
2023-05-16T03:29:00.532Z,99.90
2023-05-16T03:31:27.581Z,99.90
2023-05-16T03:33:54.445Z,99.90
2023-05-16T03:36:22.662Z,99.90
2023-05-16T03:38:49.831Z,99.90
2023-05-16T03:41:17.169Z,99.90
2023-05-16T03:43:44.002Z,99.90
2023-05-16T03:46:10.959Z,99.90
2023-05-16T03:48:37.764Z,99.90
2023-05-16T03:51:04.790Z,99.90
2023-05-16T03:53:31.630Z,99.90
2023-05-16T03:55:59.212Z,99.90
2023-05-16T03:58:26.279Z,99.90
2023-05-16T04:00:53.377Z,99.90
2023-05-16T04:03:20.537Z,99.90
2023-05-16T04:05:47.432Z,99.90
2023-05-16T04:08:14.425Z,99.90
2023-05-16T04:10:41.287Z,99.90
2023-05-16T04:13:08.758Z,99.90
2023-05-16T04:15:36.112Z,99.90
2023-05-16T04:18:03.525Z,99.90
2023-05-16T04:20:32.784Z,99.90
2023-05-16T04:22:59.805Z,99.90
2023-05-16T04:25:27.075Z,99.90
2023-05-16T04:27:53.975Z,99.90
2023-05-16T04:30:21.088Z,99.90
2023-05-16T04:32:48.016Z,99.90
2023-05-16T04:35:14.870Z,99.90
2023-05-16T04:37:42.400Z,99.90
2023-05-16T04:40:09.882Z,99.90
2023-05-16T04:42:37.482Z,99.90
2023-05-16T04:45:06.720Z,99.90
2023-05-16T04:47:34.290Z,99.90
2023-05-16T04:50:01.468Z,99.90
2023-05-16T04:52:28.437Z,99.90
2023-05-16T04:54:55.362Z,99.90
2023-05-16T04:57:22.299Z,99.90
2023-05-16T04:59:49.225Z,99.90
2023-05-16T05:02:16.220Z,99.90
2023-05-16T05:04:43.178Z,99.90
2023-05-16T05:07:10.184Z,99.90
2023-05-16T05:09:37.077Z,99.90
2023-05-16T05:12:04.374Z,99.90
2023-05-16T05:14:31.190Z,99.90
2023-05-16T05:16:58.329Z,99.90
2023-05-16T05:19:25.466Z,99.90
2023-05-16T05:21:52.387Z,99.90
2023-05-16T05:24:19.233Z,99.90
2023-05-16T05:26:46.030Z,99.90
2023-05-16T05:29:12.918Z,99.90
2023-05-16T05:31:39.746Z,99.90
2023-05-16T05:34:06.664Z,99.90
2023-05-16T05:36:33.601Z,99.90
2023-05-16T05:39:00.604Z,99.90
2023-05-16T05:41:27.589Z,99.90
2023-05-16T05:43:54.657Z,99.90
2023-05-16T05:46:21.607Z,99.90
2023-05-16T05:48:48.554Z,99.90
2023-05-16T05:51:16.472Z,99.90
2023-05-16T05:53:43.389Z,99.90
2023-05-16T05:56:10.893Z,99.90
2023-05-16T05:58:41.884Z,99.90
2023-05-16T06:01:08.873Z,99.90
2023-05-16T06:03:35.729Z,99.90
2023-05-16T06:06:03.761Z,99.90
2023-05-16T06:08:30.711Z,99.90
2023-05-16T06:10:57.556Z,99.90
2023-05-16T06:13:24.598Z,99.90
2023-05-16T06:15:52.540Z,99.90
2023-05-16T06:18:20.191Z,99.90
2023-05-16T06:20:47.341Z,99.90
2023-05-16T06:23:15.504Z,99.90
2023-05-16T06:25:42.382Z,99.90
2023-05-16T06:28:15.242Z,99.90
2023-05-16T06:30:42.111Z,99.90
2023-05-16T06:33:10.467Z,99.90
2023-05-16T06:35:37.373Z,99.90
2023-05-16T06:38:05.434Z,99.90
2023-05-16T06:40:32.324Z,99.90
2023-05-16T06:42:59.437Z,99.90
2023-05-16T06:45:27.051Z,99.90
2023-05-16T06:47:57.264Z,99.90
2023-05-16T06:50:24.727Z,99.90
2023-05-16T06:52:51.812Z,99.90
2023-05-16T06:55:18.838Z,99.90
2023-05-16T06:57:45.877Z,99.90
2023-05-16T07:00:13.551Z,99.90
2023-05-16T07:02:40.678Z,99.90
2023-05-16T07:05:08.128Z,99.90
2023-05-16T07:07:35.998Z,99.90
2023-05-16T07:10:03.686Z,99.90
2023-05-16T07:12:31.389Z,99.90
2023-05-16T07:14:58.459Z,99.90
2023-05-16T07:17:25.636Z,99.90
2023-05-16T07:19:53.322Z,99.90
2023-05-16T07:22:20.401Z,99.90
2023-05-16T07:24:47.335Z,99.90
2023-05-16T07:27:14.186Z,99.90
2023-05-16T07:29:41.547Z,99.90
2023-05-16T07:32:08.880Z,99.90
2023-05-16T07:34:35.935Z,99.90
2023-05-16T07:37:03.367Z,99.90
2023-05-16T07:39:30.267Z,99.90
2023-05-16T07:41:57.170Z,99.90
2023-05-16T07:44:24.135Z,99.90
2023-05-16T07:46:51.205Z,99.90
2023-05-16T07:49:18.194Z,99.90
2023-05-16T07:51:45.077Z,99.90
2023-05-16T07:54:11.920Z,99.90
2023-05-16T07:56:38.818Z,99.90
2023-05-16T07:59:06.086Z,99.90
2023-05-16T08:01:33.319Z,99.90
2023-05-16T08:04:00.418Z,99.90
2023-05-16T08:06:27.439Z,99.90
2023-05-16T08:08:54.700Z,99.90
2023-05-16T08:11:22.524Z,99.90
2023-05-16T08:13:50.191Z,99.90
2023-05-16T08:16:17.406Z,99.90
2023-05-16T08:18:44.433Z,99.90
2023-05-16T08:21:11.466Z,99.90
2023-05-16T08:23:38.474Z,99.90
2023-05-16T08:26:05.548Z,99.90
2023-05-16T08:28:33.127Z,99.90
2023-05-16T08:30:59.991Z,99.90
2023-05-16T08:33:26.974Z,99.90
2023-05-16T08:35:53.987Z,99.90
2023-05-16T08:38:20.945Z,99.90
2023-05-16T08:40:47.896Z,99.90
2023-05-16T08:43:15.064Z,99.90
2023-05-16T08:45:42.655Z,99.90
2023-05-16T08:48:11.802Z,99.90
2023-05-16T08:50:39.080Z,99.90
2023-05-16T08:53:09.410Z,99.90
2023-05-16T08:55:37.077Z,99.90
2023-05-16T08:58:04.870Z,99.90
2023-05-16T09:00:32.230Z,99.90
2023-05-16T09:02:59.500Z,99.90
2023-05-16T09:05:30.042Z,99.90
2023-05-16T09:07:57.337Z,99.90
2023-05-16T09:10:24.278Z,99.90
2023-05-16T09:12:51.202Z,99.90
2023-05-16T09:15:20.192Z,99.90
2023-05-16T09:17:48.371Z,99.90
2023-05-16T09:20:21.836Z,99.90
2023-05-16T09:22:54.802Z,99.90
2023-05-16T09:27:57.296Z,99.90
2023-05-16T09:30:34.970Z,99.90
2023-05-16T09:33:02.241Z,99.90
2023-05-16T09:37:59.129Z,99.90
2023-05-16T09:40:26.187Z,99.90
2023-05-16T09:43:07.120Z,99.90
2023-05-16T09:45:35.454Z,99.90
2023-05-16T09:48:08.476Z,99.90
2023-05-16T09:50:36.785Z,99.90
2023-05-16T09:53:13.693Z,99.90
2023-05-16T09:55:40.760Z,99.90
2023-05-16T09:58:07.620Z,99.90
2023-05-16T10:00:35.082Z,99.90
2023-05-16T10:03:05.473Z,99.90
2023-05-16T10:05:33.524Z,99.90
2023-05-16T10:08:02.998Z,99.90
2023-05-16T10:10:31.467Z,99.90
2023-05-16T10:13:01.498Z,99.90
2023-05-16T10:15:30.221Z,99.90
2023-05-16T10:18:00.026Z,99.90
2023-05-16T10:20:27.792Z,99.90
2023-05-16T10:22:56.896Z,99.90
2023-05-16T10:25:30.365Z,99.90
2023-05-16T10:27:58.362Z,99.90
2023-05-16T10:30:25.835Z,99.90
2023-05-16T10:32:54.147Z,99.90
2023-05-16T10:35:22.079Z,99.90
2023-05-16T10:37:51.060Z,99.90
2023-05-16T10:40:18.917Z,99.90
2023-05-16T10:42:57.942Z,99.90
2023-05-16T10:45:25.266Z,99.90
2023-05-16T10:47:56.957Z,99.90
2023-05-16T10:50:43.567Z,99.90
2023-05-16T10:53:13.487Z,99.90
2023-05-16T10:55:40.780Z,99.90
2023-05-16T10:58:08.172Z,99.90
2023-05-16T11:00:35.072Z,99.90
2023-05-16T11:03:06.522Z,99.90
2023-05-16T11:05:34.014Z,99.90
2023-05-16T11:08:06.362Z,99.90
2023-05-16T11:10:33.463Z,99.90
2023-05-16T11:13:08.984Z,99.90
2023-05-16T11:15:35.940Z,99.90
2023-05-16T11:18:09.539Z,99.90
2023-05-16T11:20:37.617Z,99.90
2023-05-16T11:23:25.865Z,99.90
2023-05-16T11:26:00.368Z,99.90
2023-05-16T11:28:28.032Z,99.90
2023-05-16T11:30:57.759Z,99.90
2023-05-16T11:33:25.329Z,99.90
2023-05-16T11:36:14.599Z,99.90
2023-05-16T11:38:43.799Z,99.90
2023-05-16T11:41:11.503Z,99.90
2023-05-16T11:43:43.567Z,99.90
2023-05-16T11:46:14.423Z,99.90
2023-05-16T11:48:41.694Z,99.90
2023-05-16T11:51:10.026Z,99.90
2023-05-16T11:53:38.281Z,99.90
2023-05-16T11:56:08.666Z,99.90
2023-05-16T11:58:36.855Z,99.90
2023-05-16T12:01:05.393Z,99.90
2023-05-16T12:03:35.944Z,99.90
2023-05-16T12:06:03.219Z,99.90
2023-05-16T12:08:30.655Z,99.90
2023-05-16T12:10:58.946Z,99.90
2023-05-16T12:13:26.137Z,99.90
2023-05-16T12:15:53.537Z,99.90
2023-05-16T12:18:21.754Z,99.90
2023-05-16T12:20:48.991Z,99.90
2023-05-16T12:23:16.632Z,99.90
2023-05-16T12:25:47.559Z,99.90
2023-05-16T12:28:15.223Z,99.90
2023-05-16T12:30:44.146Z,99.90
2023-05-16T12:33:14.717Z,99.90
2023-05-16T12:35:43.641Z,99.90
2023-05-16T12:38:12.329Z,99.90
2023-05-16T12:40:41.277Z,99.90
2023-05-16T12:43:15.705Z,99.90
2023-05-16T12:45:49.326Z,99.90
2023-05-16T12:48:16.283Z,99.90
2023-05-16T12:50:43.152Z,99.90
2023-05-16T12:53:14.446Z,99.90
2023-05-16T12:55:42.693Z,99.90
2023-05-16T12:58:10.848Z,99.90
2023-05-16T13:00:38.972Z,99.90
2023-05-16T13:03:07.419Z,99.90
2023-05-16T13:05:36.083Z,99.90
2023-05-16T13:08:03.572Z,99.90
2023-05-16T13:10:30.769Z,99.90
2023-05-16T13:12:59.862Z,99.90
2023-05-16T13:15:27.549Z,99.90
2023-05-16T13:17:54.928Z,99.90
2023-05-16T13:20:22.026Z,99.90
2023-05-16T13:22:49.147Z,99.90
2023-05-16T13:25:16.184Z,99.90
2023-05-16T13:27:43.258Z,99.90
2023-05-16T13:30:11.550Z,99.90
2023-05-16T13:32:38.614Z,99.90
2023-05-16T13:35:06.085Z,99.90
2023-05-16T13:37:33.380Z,99.90
2023-05-16T13:40:00.373Z,99.90
2023-05-16T13:42:27.497Z,99.90
2023-05-16T13:44:54.418Z,99.90
2023-05-16T13:47:21.330Z,99.90
2023-05-16T13:49:48.627Z,99.90
2023-05-16T13:52:15.558Z,99.50
2023-05-16T13:54:42.518Z,98.70
2023-05-16T13:57:09.639Z,97.60
2023-05-16T14:02:06.518Z,97.60
2023-05-16T14:04:33.403Z,96.20
2023-05-16T14:07:00.370Z,96.80
2023-05-16T14:09:27.270Z,96.60
2023-05-16T14:11:54.258Z,95.50
2023-05-16T14:14:21.257Z,94.60
2023-05-16T14:16:48.676Z,92.70
2023-05-16T14:19:18.990Z,91.80
2023-05-16T14:21:46.545Z,92.40
2023-05-16T14:24:13.436Z,92.60
2023-05-16T14:26:41.131Z,93.10
2023-05-16T14:29:08.037Z,92.80
2023-05-16T14:31:36.417Z,93.10
2023-05-16T14:34:04.091Z,93.40
2023-05-16T14:36:31.863Z,92.10
2023-05-16T14:39:00.443Z,92.10
2023-05-16T14:41:27.319Z,92.30
2023-05-16T14:43:54.676Z,92.90
2023-05-16T14:46:21.684Z,92.60
2023-05-16T14:48:48.662Z,91.80
2023-05-16T14:51:16.561Z,91.20
2023-05-16T14:53:45.279Z,90.90
2023-05-16T14:56:13.686Z,90.60
2023-05-16T14:58:40.636Z,90.70
2023-05-16T15:01:07.568Z,90.00
2023-05-16T15:03:46.897Z,89.40
2023-05-16T15:06:18.004Z,89.30
2023-05-16T15:08:44.973Z,90.50
2023-05-16T15:11:11.884Z,90.60
2023-05-16T15:13:39.173Z,90.30
2023-05-16T15:16:06.338Z,89.70
2023-05-16T15:18:34.154Z,89.00
2023-05-16T15:21:01.054Z,90.90
2023-05-16T15:23:28.263Z,92.70
2023-05-16T15:25:55.197Z,92.70
2023-05-16T15:28:22.830Z,91.50
2023-05-16T15:30:51.715Z,91.10
2023-05-16T15:33:18.625Z,90.10
2023-05-16T15:35:51.891Z,89.50
2023-05-16T15:38:19.885Z,89.00
2023-05-16T15:40:47.899Z,87.30
2023-05-16T15:43:17.941Z,86.70
2023-05-16T15:45:45.485Z,85.90
2023-05-16T15:48:13.064Z,85.70
2023-05-16T15:50:40.036Z,84.80
2023-05-16T15:53:07.898Z,83.80
2023-05-16T15:55:34.904Z,85.50
2023-05-16T15:58:02.266Z,84.80
2023-05-16T16:00:33.206Z,84.70
2023-05-16T16:03:06.028Z,83.30
2023-05-16T16:05:32.969Z,83.30
2023-05-16T16:07:59.912Z,85.60
2023-05-16T16:10:28.810Z,88.60
2023-05-16T16:13:03.815Z,91.10
2023-05-16T16:15:33.274Z,92.70
2023-05-16T16:18:01.646Z,93.80
2023-05-16T16:20:31.649Z,94.80
2023-05-16T16:22:59.116Z,95.20
2023-05-16T16:25:26.242Z,95.80
2023-05-16T16:27:54.624Z,96.70
2023-05-16T16:30:22.394Z,97.50
2023-05-16T16:32:49.403Z,98.10
2023-05-16T16:35:17.599Z,98.30
2023-05-16T16:37:58.263Z,98.80
2023-05-16T16:40:36.071Z,99.20
2023-05-16T16:43:04.166Z,99.50
2023-05-16T16:45:31.385Z,99.60
2023-05-16T16:47:58.683Z,99.90
2023-05-16T16:50:26.736Z,99.90
2023-05-16T16:52:54.827Z,99.90
2023-05-16T16:55:22.080Z,99.90
2023-05-16T16:57:48.993Z,99.90
2023-05-16T17:00:16.444Z,99.90
2023-05-16T17:02:43.683Z,99.90
2023-05-16T17:05:11.071Z,99.90
2023-05-16T17:07:40.078Z,99.90
2023-05-16T17:10:07.886Z,99.90
2023-05-16T17:12:35.060Z,99.90
2023-05-16T17:15:02.291Z,99.90
2023-05-16T17:17:29.820Z,99.90
2023-05-16T17:19:56.835Z,99.90
2023-05-16T17:22:23.733Z,99.90
2023-05-16T17:24:50.638Z,99.90
2023-05-16T17:27:17.949Z,99.90
2023-05-16T17:29:44.855Z,99.90
2023-05-16T17:32:11.706Z,99.90
2023-05-16T17:34:38.561Z,99.90
2023-05-16T17:37:06.665Z,99.90
2023-05-16T17:39:34.161Z,99.90
2023-05-16T17:42:01.766Z,99.90
2023-05-16T17:44:28.687Z,99.90
2023-05-16T17:46:55.792Z,99.90
2023-05-16T17:49:23.333Z,99.90
2023-05-16T17:51:54.320Z,99.90
2023-05-16T17:54:22.213Z,99.90
2023-05-16T17:56:50.754Z,99.90
2023-05-16T17:59:17.896Z,99.90
2023-05-16T18:01:45.076Z,99.90
2023-05-16T18:04:12.044Z,99.90
2023-05-16T18:06:40.083Z,99.90
2023-05-16T18:09:09.853Z,99.90
2023-05-16T18:11:39.392Z,99.90
2023-05-16T18:14:09.298Z,99.90
2023-05-16T18:16:36.668Z,99.90
2023-05-16T18:19:05.178Z,99.90
2023-05-16T18:21:32.337Z,99.90
2023-05-16T18:23:59.559Z,99.90
2023-05-16T18:26:28.083Z,99.90
2023-05-16T18:28:55.109Z,99.90
2023-05-16T18:31:22.314Z,99.90
2023-05-16T18:33:49.855Z,99.90
2023-05-16T18:36:16.731Z,99.90
2023-05-16T18:38:43.625Z,99.90
2023-05-16T18:41:10.796Z,99.90
2023-05-16T18:43:37.698Z,99.90
2023-05-16T18:46:04.924Z,99.90
2023-05-16T18:48:32.466Z,99.90
2023-05-16T18:51:01.108Z,99.90
2023-05-16T18:53:28.025Z,99.90
2023-05-16T18:55:56.044Z,99.90
2023-05-16T18:58:23.068Z,99.90
2023-05-16T19:00:49.952Z,99.90
2023-05-16T19:03:17.191Z,99.90
2023-05-16T19:05:45.094Z,99.90
2023-05-16T19:08:12.138Z,99.90
2023-05-16T19:10:41.496Z,99.90
2023-05-16T19:13:08.914Z,99.90
2023-05-16T19:15:36.833Z,99.90
2023-05-16T19:18:07.195Z,99.90
2023-05-16T19:20:36.695Z,99.90
2023-05-16T19:23:03.603Z,99.90
2023-05-16T19:25:31.555Z,99.90
2023-05-16T19:27:59.127Z,99.90
2023-05-16T19:30:26.274Z,99.90
2023-05-16T19:32:53.327Z,99.90
2023-05-16T19:35:20.632Z,99.90
2023-05-16T19:37:47.729Z,99.90
2023-05-16T19:40:16.435Z,99.90
2023-05-16T19:42:44.113Z,99.90
2023-05-16T19:45:11.915Z,99.90
2023-05-16T19:47:41.083Z,99.90
2023-05-16T19:50:08.865Z,99.90
2023-05-16T19:52:38.835Z,99.90
2023-05-16T19:55:07.704Z,99.90
2023-05-16T19:57:34.921Z,99.90
2023-05-16T20:00:01.879Z,99.90
2023-05-16T20:02:29.542Z,99.90
2023-05-16T20:04:57.104Z,99.90
2023-05-16T20:07:24.402Z,99.90
2023-05-16T20:09:52.029Z,99.90
2023-05-16T20:12:18.929Z,99.90
2023-05-16T20:14:46.822Z,99.90
2023-05-16T20:17:13.743Z,99.90
2023-05-16T20:19:43.817Z,99.90
2023-05-16T20:22:11.429Z,99.90
2023-05-16T20:24:38.447Z,99.90
2023-05-16T20:27:05.621Z,99.90
2023-05-16T20:29:33.829Z,99.90
2023-05-16T20:32:03.148Z,99.90
2023-05-16T20:34:31.732Z,99.90
2023-05-16T20:36:58.754Z,99.90
2023-05-16T20:39:26.410Z,99.90
2023-05-16T20:41:53.392Z,99.90
2023-05-16T20:44:20.751Z,99.90
2023-05-16T20:46:47.905Z,99.90
2023-05-16T20:49:14.919Z,99.90
2023-05-16T20:51:42.527Z,99.90
2023-05-16T20:54:10.714Z,99.90
2023-05-16T20:56:37.662Z,99.90
2023-05-16T20:59:08.325Z,99.90
2023-05-16T21:01:35.234Z,99.90
2023-05-16T21:04:02.100Z,99.90
2023-05-16T21:06:29.081Z,99.90
2023-05-16T21:08:56.826Z,99.90
2023-05-16T21:11:24.000Z,99.90
2023-05-16T21:13:50.951Z,99.90
2023-05-16T21:16:17.826Z,99.90
2023-05-16T21:18:44.989Z,99.90
2023-05-16T21:21:11.972Z,99.90
2023-05-16T21:23:39.375Z,99.90
2023-05-16T21:26:06.944Z,99.90
2023-05-16T21:28:39.667Z,99.90
2023-05-16T21:31:13.076Z,99.90
2023-05-16T21:33:40.030Z,99.90
2023-05-16T21:36:07.353Z,99.90
2023-05-16T21:38:34.267Z,99.90
2023-05-16T21:41:01.238Z,99.90
2023-05-16T21:43:28.239Z,99.90
2023-05-16T21:45:55.450Z,99.90
2023-05-16T21:48:22.360Z,99.90
2023-05-16T21:50:49.410Z,99.90
2023-05-16T21:53:16.364Z,99.90
2023-05-16T21:55:43.797Z,99.90
2023-05-16T21:58:10.847Z,99.90
2023-05-16T22:00:37.732Z,99.90
2023-05-16T22:03:04.788Z,99.90
2023-05-16T22:05:31.956Z,99.90
2023-05-16T22:07:59.015Z,99.90
2023-05-16T22:10:26.335Z,99.90
2023-05-16T22:12:53.216Z,99.90
2023-05-16T22:15:20.408Z,99.90
2023-05-16T22:17:48.189Z,99.90
2023-05-16T22:20:15.274Z,99.90
2023-05-16T22:22:43.701Z,99.90
2023-05-16T22:25:10.840Z,99.90
2023-05-16T22:27:37.750Z,99.90
2023-05-16T22:30:06.057Z,99.90
2023-05-16T22:32:33.123Z,99.90
2023-05-16T22:35:00.086Z,99.90
2023-05-16T22:37:26.997Z,99.90
2023-05-16T22:39:53.817Z,99.90
2023-05-16T22:42:20.675Z,99.90
2023-05-16T22:44:47.614Z,99.90
2023-05-16T22:47:14.762Z,99.90
2023-05-16T22:49:42.026Z,99.90
2023-05-16T22:52:09.072Z,99.90
2023-05-16T22:54:36.006Z,99.90
2023-05-16T22:57:02.921Z,99.90
2023-05-16T22:59:29.817Z,99.90
2023-05-16T23:01:56.996Z,99.90
2023-05-16T23:04:23.914Z,99.90
2023-05-16T23:06:50.892Z,99.90
2023-05-16T23:09:17.776Z,99.90
2023-05-16T23:11:44.721Z,99.90
2023-05-16T23:14:11.575Z,99.90
2023-05-16T23:16:38.516Z,99.90
2023-05-16T23:19:07.364Z,99.90
2023-05-16T23:21:36.157Z,99.90
2023-05-16T23:24:03.063Z,99.90
2023-05-16T23:26:30.070Z,99.90
2023-05-16T23:28:56.906Z,99.90
2023-05-16T23:31:23.776Z,99.90
2023-05-16T23:33:50.733Z,99.90
2023-05-16T23:36:17.630Z,99.90
2023-05-16T23:38:44.507Z,99.90
2023-05-16T23:41:12.482Z,99.90
2023-05-16T23:43:39.812Z,99.90
2023-05-16T23:46:06.625Z,99.90
2023-05-16T23:48:36.057Z,99.90
2023-05-16T23:51:04.618Z,99.90
2023-05-16T23:53:32.958Z,99.90
2023-05-16T23:56:00.180Z,99.90
2023-05-16T23:58:27.468Z,99.90
